createdAt,value
2022-08-26T00:00:55.875Z,34.01
2022-08-26T00:03:25.529Z,33.99
2022-08-26T00:05:54.577Z,33.94
2022-08-26T00:08:41.712Z,33.90
2022-08-26T00:11:12.682Z,33.87
2022-08-26T00:13:49.586Z,33.75
2022-08-26T00:16:19.091Z,33.87
2022-08-26T00:18:51.926Z,33.80
2022-08-26T00:21:21.409Z,33.74
2022-08-26T00:23:50.672Z,33.92
2022-08-26T00:26:22.675Z,33.89
2022-08-26T00:28:57.730Z,33.70
2022-08-26T00:31:28.672Z,33.78
2022-08-26T00:34:00.580Z,33.49
2022-08-26T00:36:30.133Z,33.36
2022-08-26T00:38:59.363Z,33.26
2022-08-26T00:41:28.842Z,33.34
2022-08-26T00:43:58.904Z,33.40
2022-08-26T00:46:37.554Z,33.37
2022-08-26T00:49:22.807Z,33.35
2022-08-26T00:51:58.917Z,33.46
2022-08-26T00:54:35.498Z,33.50
2022-08-26T00:57:16.291Z,33.55
2022-08-26T00:59:51.578Z,33.36
2022-08-26T01:02:24.466Z,33.23
2022-08-26T01:04:58.149Z,33.08
2022-08-26T01:07:31.330Z,33.03
2022-08-26T01:10:03.857Z,32.99
2022-08-26T01:12:41.229Z,32.57
2022-08-26T01:15:19.643Z,32.38
2022-08-26T01:17:50.255Z,32.33
2022-08-26T01:21:07.854Z,32.26
2022-08-26T01:23:45.212Z,32.29
2022-08-26T01:26:22.125Z,32.34
2022-08-26T01:28:56.784Z,32.24
2022-08-26T01:31:31.335Z,32.19
2022-08-26T01:34:12.212Z,32.09
2022-08-26T01:36:42.494Z,32.14
2022-08-26T01:39:17.963Z,32.11
2022-08-26T01:41:53.870Z,32.08
2022-08-26T01:44:30.771Z,31.98
2022-08-26T01:47:06.760Z,31.89
2022-08-26T01:49:38.690Z,31.81
2022-08-26T01:52:10.781Z,31.72
2022-08-26T01:54:42.951Z,31.76
2022-08-26T01:57:18.305Z,31.78
2022-08-26T01:59:50.638Z,31.85
2022-08-26T02:02:24.591Z,31.89
2022-08-26T02:05:04.649Z,31.84
2022-08-26T02:07:45.184Z,31.79
2022-08-26T02:10:15.810Z,31.79
2022-08-26T02:12:45.834Z,31.89
2022-08-26T02:15:15.455Z,31.95
2022-08-26T02:17:48.186Z,31.84
2022-08-26T02:20:23.324Z,31.93
2022-08-26T02:22:52.899Z,31.83
2022-08-26T02:25:43.501Z,31.84
2022-08-26T02:28:14.450Z,31.71
2022-08-26T02:30:45.863Z,31.82
2022-08-26T02:33:15.165Z,31.85
2022-08-26T02:35:46.275Z,31.84
2022-08-26T02:38:15.863Z,31.86
2022-08-26T02:40:45.073Z,31.79
2022-08-26T02:43:14.429Z,31.86
2022-08-26T02:45:48.904Z,31.69
2022-08-26T02:48:21.595Z,31.55
2022-08-26T02:50:51.513Z,31.42
2022-08-26T02:53:25.193Z,31.33
2022-08-26T02:55:54.806Z,31.22
2022-08-26T02:58:25.447Z,31.18
2022-08-26T03:00:55.653Z,31.15
2022-08-26T03:03:25.426Z,31.16
2022-08-26T03:05:55.054Z,31.28
2022-08-26T03:08:24.288Z,31.23
2022-08-26T03:10:54.888Z,31.06
2022-08-26T03:13:24.049Z,31.17
2022-08-26T03:15:53.209Z,31.21
2022-08-26T03:18:22.723Z,31.25
2022-08-26T03:20:53.357Z,31.24
2022-08-26T03:23:25.756Z,31.15
2022-08-26T03:25:55.279Z,31.00
2022-08-26T03:28:27.160Z,30.94
2022-08-26T03:30:58.689Z,30.97
2022-08-26T03:33:28.708Z,31.00
2022-08-26T03:35:58.447Z,31.02
2022-08-26T03:38:27.829Z,30.99
2022-08-26T03:40:58.055Z,30.98
2022-08-26T03:43:27.696Z,31.04
2022-08-26T03:45:56.702Z,31.10
2022-08-26T03:48:27.148Z,31.07
2022-08-26T03:50:56.214Z,31.00
2022-08-26T03:53:27.232Z,31.01
2022-08-26T03:55:56.362Z,31.02
2022-08-26T03:58:26.574Z,30.98
2022-08-26T04:00:55.938Z,30.99
2022-08-26T04:03:46.214Z,30.97
2022-08-26T04:06:17.924Z,31.05
2022-08-26T04:08:46.988Z,31.04
2022-08-26T04:11:20.159Z,31.10
2022-08-26T04:13:50.295Z,31.05
2022-08-26T04:16:20.152Z,30.93
2022-08-26T04:18:49.784Z,30.86
2022-08-26T04:21:20.778Z,30.79
2022-08-26T04:23:50.594Z,30.89
2022-08-26T04:26:23.266Z,30.96
2022-08-26T04:28:56.318Z,30.60
2022-08-26T04:31:26.594Z,30.52
2022-08-26T04:34:00.242Z,30.49
2022-08-26T04:36:33.293Z,30.46
2022-08-26T04:39:05.505Z,30.38
2022-08-26T04:41:35.230Z,30.38
2022-08-26T04:44:06.737Z,30.40
2022-08-26T04:46:36.742Z,30.50
2022-08-26T04:49:13.993Z,30.68
2022-08-26T04:51:49.133Z,30.75
2022-08-26T04:54:18.548Z,30.70
2022-08-26T04:56:51.041Z,30.62
2022-08-26T04:59:21.924Z,30.76
2022-08-26T05:02:00.042Z,30.83
2022-08-26T05:04:30.456Z,30.87
2022-08-26T05:07:04.621Z,31.24
2022-08-26T05:09:36.545Z,31.22
2022-08-26T05:12:10.696Z,31.19
2022-08-26T05:14:46.473Z,31.25
2022-08-26T05:17:16.655Z,31.32
2022-08-26T05:19:45.984Z,31.34
2022-08-26T05:22:20.469Z,31.44
2022-08-26T05:24:49.626Z,31.54
2022-08-26T05:27:21.293Z,31.54
2022-08-26T05:29:54.563Z,31.73
2022-08-26T05:32:35.287Z,31.79
2022-08-26T05:35:07.756Z,31.89
2022-08-26T05:37:38.837Z,31.92
2022-08-26T05:40:08.664Z,31.91
2022-08-26T05:42:39.652Z,32.11
2022-08-26T05:45:28.258Z,32.16
2022-08-26T05:47:57.359Z,32.16
2022-08-26T05:50:26.334Z,32.10
2022-08-26T05:52:55.681Z,32.23
2022-08-26T05:55:24.653Z,32.28
2022-08-26T05:57:56.677Z,32.35
2022-08-26T06:00:27.852Z,32.51
2022-08-26T06:02:58.902Z,32.79
2022-08-26T06:05:28.196Z,33.04
2022-08-26T06:08:14.478Z,33.27
2022-08-26T06:10:56.728Z,33.66
2022-08-26T06:13:30.297Z,34.03
2022-08-26T06:16:09.074Z,34.41
2022-08-26T06:18:42.304Z,34.84
2022-08-26T06:21:13.782Z,35.13
2022-08-26T06:24:03.468Z,35.40
2022-08-26T06:26:34.052Z,35.61
2022-08-26T06:29:07.851Z,35.85
2022-08-26T06:31:37.788Z,36.25
2022-08-26T06:34:12.415Z,36.69
2022-08-26T06:36:44.958Z,37.08
2022-08-26T06:39:19.018Z,37.37
2022-08-26T06:41:54.144Z,37.60
2022-08-26T06:44:46.048Z,37.73
2022-08-26T06:47:16.332Z,37.92
2022-08-26T06:49:45.630Z,38.33
2022-08-26T06:52:24.353Z,38.55
2022-08-26T06:54:54.185Z,38.76
2022-08-26T06:57:30.855Z,39.01
2022-08-26T07:00:05.737Z,39.22
2022-08-26T07:02:35.818Z,39.29
2022-08-26T07:05:08.709Z,39.67
2022-08-26T07:07:38.754Z,39.89
2022-08-26T07:10:09.047Z,40.17
2022-08-26T07:12:39.230Z,40.38
2022-08-26T07:15:11.816Z,40.65
2022-08-26T07:17:41.240Z,40.59
2022-08-26T07:20:12.004Z,40.62
2022-08-26T07:22:43.970Z,40.69
2022-08-26T07:25:14.381Z,40.85
2022-08-26T07:27:44.109Z,40.75
2022-08-26T07:30:14.782Z,40.78
2022-08-26T07:32:44.203Z,40.85
2022-08-26T07:35:14.313Z,41.01
2022-08-26T07:37:43.479Z,41.20
2022-08-26T07:40:12.490Z,41.39
2022-08-26T07:42:41.517Z,41.41
2022-08-26T07:45:11.521Z,41.51
2022-08-26T07:47:40.798Z,41.74
2022-08-26T07:50:10.334Z,41.85
2022-08-26T07:52:43.599Z,41.90
2022-08-26T07:55:12.713Z,41.84
2022-08-26T07:57:42.319Z,41.82
2022-08-26T08:00:16.457Z,41.87
2022-08-26T08:02:49.792Z,41.96
2022-08-26T08:05:22.801Z,42.02
2022-08-26T08:08:19.684Z,42.14
2022-08-26T08:10:57.391Z,42.26
2022-08-26T08:13:26.399Z,42.36
2022-08-26T08:15:58.236Z,42.52
2022-08-26T08:18:28.984Z,42.73
2022-08-26T08:21:10.821Z,42.91
2022-08-26T08:23:47.667Z,43.09
2022-08-26T08:26:16.973Z,43.07
2022-08-26T08:29:04.549Z,43.12
2022-08-26T08:34:28.920Z,43.34
2022-08-26T08:37:10.180Z,43.34
2022-08-26T08:39:43.727Z,43.45
2022-08-26T08:42:33.704Z,43.57
2022-08-26T08:45:35.943Z,43.50
2022-08-26T08:48:16.765Z,43.39
2022-08-26T08:51:06.291Z,43.51
2022-08-26T08:53:43.163Z,43.64
2022-08-26T08:56:32.516Z,43.62
2022-08-26T08:59:41.604Z,43.66
2022-08-26T09:02:47.952Z,43.63
2022-08-26T09:05:24.877Z,43.76
2022-08-26T09:08:11.235Z,43.65
2022-08-26T09:10:59.246Z,43.53
2022-08-26T09:13:32.550Z,43.57
2022-08-26T09:16:15.908Z,43.84
2022-08-26T09:19:18.873Z,44.32
2022-08-26T09:21:58.425Z,44.36
2022-08-26T09:24:38.354Z,44.33
2022-08-26T09:27:11.625Z,44.50
2022-08-26T09:29:45.596Z,45.01
2022-08-26T09:32:25.460Z,45.25
2022-08-26T09:35:04.593Z,45.23
2022-08-26T09:37:59.726Z,45.39
2022-08-26T09:40:41.779Z,45.50
2022-08-26T09:43:22.614Z,45.09
2022-08-26T09:46:15.341Z,44.96
2022-08-26T09:48:44.590Z,44.37
2022-08-26T09:51:26.706Z,44.12
2022-08-26T09:54:00.483Z,43.91
2022-08-26T09:56:32.832Z,43.81
2022-08-26T09:59:04.569Z,43.86
2022-08-26T10:01:45.286Z,43.86
2022-08-26T10:04:23.162Z,43.68
2022-08-26T10:07:08.389Z,43.58
2022-08-26T10:09:43.480Z,43.54
2022-08-26T10:12:20.193Z,43.45
2022-08-26T10:15:10.068Z,43.32
2022-08-26T10:18:05.265Z,43.38
2022-08-26T10:20:49.397Z,43.49
2022-08-26T10:23:25.053Z,43.38
2022-08-26T10:26:14.100Z,43.17
2022-08-26T10:28:57.145Z,43.12
2022-08-26T10:31:40.875Z,43.14
2022-08-26T10:34:13.890Z,43.09
2022-08-26T10:37:20.586Z,43.03
2022-08-26T10:39:59.308Z,42.91
2022-08-26T10:42:50.489Z,42.64
2022-08-26T10:45:25.899Z,42.62
2022-08-26T10:48:16.851Z,42.48
2022-08-26T10:50:53.232Z,42.26
2022-08-26T10:54:07.151Z,42.01
2022-08-26T10:57:36.294Z,42.00
2022-08-26T11:00:59.495Z,41.86
2022-08-26T11:03:36.302Z,41.73
2022-08-26T11:06:39.456Z,41.60
2022-08-26T11:09:11.185Z,41.46
2022-08-26T11:11:40.172Z,41.37
2022-08-26T11:14:29.086Z,41.32
2022-08-26T11:17:11.963Z,41.29
2022-08-26T11:20:27.983Z,41.03
2022-08-26T11:23:23.219Z,40.70
2022-08-26T11:26:01.891Z,40.38
2022-08-26T11:28:44.089Z,40.21
2022-08-26T11:31:19.229Z,40.14
2022-08-26T11:33:59.522Z,40.01
2022-08-26T11:36:57.677Z,39.93
2022-08-26T11:39:55.411Z,39.89
2022-08-26T11:42:46.894Z,39.94
2022-08-26T11:45:22.437Z,39.93
2022-08-26T11:47:54.836Z,39.75
2022-08-26T11:50:28.849Z,39.73
2022-08-26T11:53:06.103Z,39.75
2022-08-26T11:55:43.683Z,39.74
2022-08-26T11:58:15.401Z,39.67
2022-08-26T12:00:46.603Z,39.57
2022-08-26T12:03:31.859Z,39.51
2022-08-26T12:06:01.079Z,39.58
2022-08-26T12:08:33.978Z,39.56
2022-08-26T12:11:31.247Z,39.52
2022-08-26T12:14:18.219Z,39.52
2022-08-26T12:16:48.336Z,39.56
2022-08-26T12:19:33.269Z,39.62
2022-08-26T12:22:04.079Z,39.58
2022-08-26T12:24:33.594Z,39.61
2022-08-26T12:27:25.477Z,39.71
2022-08-26T12:30:26.194Z,39.71
2022-08-26T12:33:22.752Z,39.71
2022-08-26T12:35:56.564Z,39.83
2022-08-26T12:38:27.710Z,39.64
2022-08-26T12:40:57.377Z,39.69
2022-08-26T12:43:45.498Z,39.83
2022-08-26T12:46:30.077Z,39.54
2022-08-26T12:49:03.610Z,39.48
2022-08-26T12:51:35.439Z,39.51
2022-08-26T12:54:07.029Z,39.58
2022-08-26T12:56:39.654Z,39.54
2022-08-26T12:59:26.176Z,39.58
2022-08-26T13:01:55.323Z,39.61
2022-08-26T13:04:42.202Z,39.58
2022-08-26T13:07:26.636Z,39.60
2022-08-26T13:09:58.204Z,39.61
2022-08-26T13:12:32.800Z,39.67
2022-08-26T13:15:03.819Z,39.68
2022-08-26T13:17:34.424Z,39.61
2022-08-26T13:20:04.541Z,39.53
2022-08-26T13:22:37.408Z,39.40
2022-08-26T13:25:09.462Z,39.33
2022-08-26T13:27:38.336Z,39.43
2022-08-26T13:30:08.078Z,39.57
2022-08-26T13:32:37.098Z,39.81
2022-08-26T13:35:07.321Z,39.64
2022-08-26T13:37:36.915Z,39.54
2022-08-26T13:40:07.822Z,39.51
2022-08-26T13:42:37.089Z,39.49
2022-08-26T13:45:19.103Z,39.53
2022-08-26T13:47:48.511Z,39.51
2022-08-26T13:50:17.671Z,39.54
2022-08-26T13:52:48.455Z,39.56
2022-08-26T13:55:17.992Z,39.58
2022-08-26T13:58:07.327Z,39.54
2022-08-26T14:00:39.756Z,39.48
2022-08-26T14:03:13.238Z,39.46
2022-08-26T14:05:44.579Z,39.65
2022-08-26T14:08:14.616Z,39.75
2022-08-26T14:10:44.723Z,39.74
2022-08-26T14:13:25.780Z,39.71
2022-08-26T14:15:59.445Z,39.71
2022-08-26T14:18:41.080Z,39.73
2022-08-26T14:21:14.794Z,39.70
2022-08-26T14:23:49.435Z,39.68
2022-08-26T14:26:29.352Z,39.60
2022-08-26T14:29:00.968Z,39.60
2022-08-26T14:31:35.701Z,39.70
2022-08-26T14:34:09.830Z,39.61
2022-08-26T14:36:41.705Z,39.55
2022-08-26T14:39:14.225Z,39.67
2022-08-26T14:41:55.035Z,39.73
2022-08-26T14:44:32.266Z,39.73
2022-08-26T14:47:04.651Z,39.76
2022-08-26T14:49:36.954Z,39.75
2022-08-26T14:52:06.239Z,39.73
2022-08-26T14:54:35.759Z,39.70
2022-08-26T14:57:15.126Z,39.65
2022-08-26T14:59:49.692Z,39.64
2022-08-26T15:02:32.519Z,39.73
2022-08-26T15:05:11.294Z,39.80
2022-08-26T15:07:42.366Z,39.84
2022-08-26T15:10:16.592Z,39.83
2022-08-26T15:12:46.291Z,39.75
2022-08-26T15:15:18.864Z,39.74
2022-08-26T15:17:48.014Z,39.78
2022-08-26T15:20:18.902Z,39.79
2022-08-26T15:22:51.279Z,39.87
2022-08-26T15:25:22.814Z,39.82
2022-08-26T15:27:53.141Z,39.86
2022-08-26T15:30:22.402Z,39.90
2022-08-26T15:32:51.746Z,39.89
2022-08-26T15:35:21.314Z,39.95
2022-08-26T15:40:22.091Z,39.86
2022-08-26T15:42:57.593Z,39.88
2022-08-26T15:45:39.396Z,39.86
2022-08-26T15:48:14.458Z,39.86
2022-08-26T15:51:01.119Z,39.86
2022-08-26T15:53:37.260Z,39.86
2022-08-26T15:56:21.777Z,39.87
2022-08-26T15:59:12.800Z,39.85
2022-08-26T16:01:44.267Z,39.79
2022-08-26T16:04:18.299Z,39.78
2022-08-26T16:06:52.610Z,39.79
2022-08-26T16:09:31.119Z,39.72
2022-08-26T16:12:06.630Z,39.68
2022-08-26T16:14:36.084Z,39.65
2022-08-26T16:17:11.183Z,39.73
2022-08-26T16:19:41.461Z,39.80
2022-08-26T16:22:24.701Z,39.72
2022-08-26T16:25:04.342Z,39.71
2022-08-26T16:28:06.110Z,39.65
2022-08-26T16:30:47.491Z,39.56
2022-08-26T16:33:32.145Z,39.57
2022-08-26T16:36:12.049Z,39.67
2022-08-26T16:38:54.730Z,39.55
2022-08-26T16:42:07.494Z,39.61
2022-08-26T16:44:54.490Z,39.59
2022-08-26T16:47:32.199Z,39.58
2022-08-26T16:50:04.997Z,39.54
2022-08-26T16:52:41.328Z,39.49
2022-08-26T16:55:24.963Z,39.49
2022-08-26T16:58:11.910Z,39.48
2022-08-26T17:01:00.261Z,39.45
2022-08-26T17:03:45.501Z,39.42
2022-08-26T17:06:20.339Z,39.43
2022-08-26T17:08:50.070Z,39.41
2022-08-26T17:11:19.997Z,39.41
2022-08-26T17:13:54.619Z,39.39
2022-08-26T17:16:31.017Z,39.51
2022-08-26T17:19:07.219Z,39.42
2022-08-26T17:21:37.052Z,39.31
2022-08-26T17:24:50.275Z,39.25
2022-08-26T17:27:27.290Z,39.09
2022-08-26T17:30:07.010Z,38.94
2022-08-26T17:32:36.718Z,38.81
2022-08-26T17:35:14.700Z,38.69
2022-08-26T17:37:44.910Z,38.68
2022-08-26T17:40:24.348Z,38.60
2022-08-26T17:42:59.385Z,38.56
2022-08-26T17:45:28.775Z,38.47
2022-08-26T17:48:08.238Z,38.35
2022-08-26T17:50:45.541Z,38.34
2022-08-26T17:53:24.157Z,38.16
2022-08-26T17:56:02.573Z,38.07
2022-08-26T17:58:40.439Z,37.95
2022-08-26T18:01:14.757Z,37.84
2022-08-26T18:03:46.252Z,37.81
2022-08-26T18:06:16.032Z,37.70
2022-08-26T18:08:51.495Z,37.58
2022-08-26T18:11:25.773Z,37.52
2022-08-26T18:13:56.828Z,37.43
2022-08-26T18:16:34.452Z,37.34
2022-08-26T18:19:31.259Z,37.21
2022-08-26T18:22:01.396Z,37.17
2022-08-26T18:24:32.624Z,37.18
2022-08-26T18:27:03.863Z,36.94
2022-08-26T18:29:33.770Z,36.79
2022-08-26T18:32:03.785Z,36.70
2022-08-26T18:34:37.291Z,36.58
2022-08-26T18:37:14.351Z,36.53
2022-08-26T18:39:42.280Z,36.45
2022-08-26T18:42:14.645Z,36.42
2022-08-26T18:44:51.627Z,36.43
2022-08-26T18:47:21.188Z,36.29
2022-08-26T18:49:51.046Z,36.20
2022-08-26T18:52:27.454Z,36.13
2022-08-26T18:54:56.890Z,36.14
2022-08-26T18:57:26.079Z,36.01
2022-08-26T18:59:55.784Z,35.95
2022-08-26T19:02:25.064Z,35.96
2022-08-26T19:04:54.895Z,35.96
2022-08-26T19:07:24.026Z,35.90
2022-08-26T19:09:53.885Z,35.87
2022-08-26T19:12:23.445Z,35.92
2022-08-26T19:15:07.256Z,35.91
2022-08-26T19:17:42.218Z,35.82
2022-08-26T19:20:13.890Z,35.76
2022-08-26T19:22:43.395Z,35.68
2022-08-26T19:25:13.546Z,35.63
2022-08-26T19:27:43.568Z,35.71
2022-08-26T19:30:15.715Z,35.64
2022-08-26T19:32:50.198Z,35.59
2022-08-26T19:35:19.563Z,35.52
2022-08-26T19:37:51.730Z,35.48
2022-08-26T19:40:25.469Z,35.48
2022-08-26T19:43:23.905Z,35.68
2022-08-26T19:46:00.256Z,35.57
2022-08-26T19:48:29.940Z,35.33
2022-08-26T19:50:59.537Z,35.17
2022-08-26T19:53:31.913Z,35.06
2022-08-26T19:56:03.587Z,35.01
2022-08-26T19:58:34.654Z,34.92
2022-08-26T20:01:06.735Z,34.91
2022-08-26T20:03:39.637Z,34.90
2022-08-26T20:06:12.867Z,34.79
2022-08-26T20:08:43.725Z,34.97
2022-08-26T20:11:23.655Z,35.14
2022-08-26T20:13:53.608Z,35.30
2022-08-26T20:16:25.447Z,35.02
2022-08-26T20:19:17.085Z,35.07
2022-08-26T20:21:53.574Z,35.30
2022-08-26T20:24:26.704Z,35.26
2022-08-26T20:27:07.979Z,35.26
2022-08-26T20:29:45.458Z,35.44
2022-08-26T20:32:15.634Z,35.54
2022-08-26T20:34:44.765Z,35.41
2022-08-26T20:37:14.017Z,35.41
2022-08-26T20:39:43.549Z,35.40
2022-08-26T20:42:19.883Z,35.31
2022-08-26T20:44:54.742Z,35.19
2022-08-26T20:47:24.789Z,35.29
2022-08-26T20:49:53.815Z,35.09
2022-08-26T20:52:22.996Z,34.86
2022-08-26T20:54:52.225Z,35.12
2022-08-26T20:57:22.560Z,35.09
2022-08-26T20:59:51.744Z,34.96
2022-08-26T21:02:20.935Z,34.82
2022-08-26T21:04:50.216Z,34.78
2022-08-26T21:07:20.962Z,34.97
2022-08-26T21:09:51.682Z,34.79
2022-08-26T21:12:20.926Z,34.68
2022-08-26T21:14:50.264Z,34.63
2022-08-26T21:17:19.606Z,34.61
2022-08-26T21:19:48.787Z,34.58
2022-08-26T21:22:17.781Z,34.60
2022-08-26T21:24:47.164Z,34.72
2022-08-26T21:27:23.044Z,34.57
2022-08-26T21:29:56.347Z,34.51
2022-08-26T21:32:27.431Z,34.41
2022-08-26T21:35:01.783Z,34.39
2022-08-26T21:37:30.994Z,34.41
2022-08-26T21:40:02.176Z,34.32
2022-08-26T21:42:34.460Z,34.32
2022-08-26T21:45:04.083Z,34.29
2022-08-26T21:47:33.140Z,34.22
2022-08-26T21:50:02.641Z,34.24
2022-08-26T21:52:34.879Z,34.23
2022-08-26T21:55:08.799Z,34.12
2022-08-26T21:57:38.448Z,34.14
2022-08-26T22:00:10.202Z,34.23
2022-08-26T22:02:39.251Z,34.09
2022-08-26T22:05:08.686Z,34.06
2022-08-26T22:07:38.693Z,34.19
2022-08-26T22:10:09.211Z,34.22
2022-08-26T22:12:41.413Z,34.06
2022-08-26T22:15:11.106Z,33.94
2022-08-26T22:17:40.523Z,33.92
2022-08-26T22:20:11.486Z,33.80
2022-08-26T22:22:45.916Z,33.79
2022-08-26T22:25:14.982Z,33.69
2022-08-26T22:27:44.080Z,33.25
2022-08-26T22:30:13.607Z,32.86
2022-08-26T22:32:45.046Z,32.84
2022-08-26T22:35:29.194Z,32.72
2022-08-26T22:38:00.002Z,32.55
2022-08-26T22:40:29.237Z,32.55
2022-08-26T22:43:00.285Z,32.53
2022-08-26T22:45:35.693Z,32.61
2022-08-26T22:48:06.822Z,32.49
2022-08-26T22:50:38.316Z,32.34
2022-08-26T22:53:11.246Z,32.32
2022-08-26T22:55:40.624Z,32.29
2022-08-26T22:58:12.018Z,32.23
2022-08-26T23:00:45.154Z,32.16
2022-08-26T23:03:17.061Z,32.19
2022-08-26T23:05:46.788Z,32.21
2022-08-26T23:08:20.416Z,32.15
2022-08-26T23:10:49.698Z,32.22
2022-08-26T23:13:19.914Z,32.22
2022-08-26T23:15:50.207Z,32.26
2022-08-26T23:18:19.985Z,32.33
2022-08-26T23:20:49.494Z,32.30
2022-08-26T23:23:18.977Z,32.19
2022-08-26T23:25:50.626Z,32.20
2022-08-26T23:28:21.030Z,32.22
2022-08-26T23:30:50.590Z,32.10
2022-08-26T23:33:20.512Z,32.00
2022-08-26T23:35:51.028Z,31.94
2022-08-26T23:38:20.106Z,31.92
2022-08-26T23:40:49.238Z,32.01
2022-08-26T23:43:18.424Z,31.96
2022-08-26T23:45:47.643Z,32.08
2022-08-26T23:48:16.867Z,32.03
2022-08-26T23:51:07.147Z,31.92
2022-08-26T23:53:36.334Z,31.89
2022-08-26T23:56:05.605Z,31.83
2022-08-26T23:58:35.097Z,31.91
